createdAt,value
2022-10-01T00:01:18.389Z,1.52
2022-10-01T00:03:47.955Z,1.67
2022-10-01T00:06:19.097Z,1.85
2022-10-01T00:08:49.490Z,1.65
2022-10-01T00:11:23.510Z,1.48
2022-10-01T00:13:50.589Z,1.73
2022-10-01T00:16:18.994Z,1.65
2022-10-01T00:18:46.397Z,1.40
2022-10-01T00:21:14.059Z,1.60
2022-10-01T00:23:40.982Z,1.50
2022-10-01T00:26:08.243Z,2.08
2022-10-01T00:28:34.829Z,1.40
2022-10-01T00:31:01.443Z,1.50
2022-10-01T00:33:28.279Z,1.73
2022-10-01T00:35:54.989Z,1.52
2022-10-01T00:38:21.585Z,2.00
2022-10-01T00:40:48.169Z,1.35
2022-10-01T00:43:21.985Z,1.40
2022-10-01T00:46:01.424Z,2.00
2022-10-01T00:48:30.643Z,1.15
2022-10-01T00:50:57.457Z,1.55
2022-10-01T00:53:24.644Z,1.90
2022-10-01T00:55:54.234Z,1.48
2022-10-01T00:58:21.957Z,1.73
2022-10-01T01:00:53.966Z,1.48
2022-10-01T01:03:23.452Z,1.40
2022-10-01T01:05:50.690Z,1.52
2022-10-01T01:08:17.820Z,1.33
2022-10-01T01:10:44.407Z,1.50
2022-10-01T01:13:10.885Z,1.40
2022-10-01T01:16:00.429Z,1.30
2022-10-01T01:18:48.111Z,1.30
2022-10-01T01:21:17.433Z,1.15
2022-10-01T01:24:02.753Z,1.48
2022-10-01T01:26:48.268Z,1.42
2022-10-01T01:29:21.698Z,1.10
2022-10-01T01:31:48.784Z,1.10
2022-10-01T01:34:27.808Z,1.40
2022-10-01T01:36:58.592Z,1.42
2022-10-01T01:39:26.738Z,1.50
2022-10-01T01:42:05.262Z,1.23
2022-10-01T01:44:36.354Z,1.10
2022-10-01T01:47:06.102Z,1.05
2022-10-01T01:49:33.264Z,1.20
2022-10-01T01:52:04.303Z,1.40
2022-10-01T01:54:30.970Z,1.15
2022-10-01T01:56:58.286Z,1.33
2022-10-01T01:59:26.019Z,1.67
2022-10-01T02:01:52.747Z,1.30
2022-10-01T02:04:22.225Z,0.95
2022-10-01T02:07:07.315Z,1.10
2022-10-01T02:09:47.248Z,1.15
2022-10-01T02:12:34.086Z,1.27
2022-10-01T02:15:19.546Z,1.05
2022-10-01T02:17:59.473Z,0.93
2022-10-01T02:20:50.311Z,1.40
2022-10-01T02:23:22.449Z,1.10
2022-10-01T02:25:51.346Z,1.17
2022-10-01T02:28:21.064Z,1.10
2022-10-01T02:30:48.725Z,0.98
2022-10-01T02:33:17.179Z,1.00
2022-10-01T02:35:45.129Z,1.00
2022-10-01T02:38:12.679Z,1.00
2022-10-01T02:40:40.920Z,1.00
2022-10-01T02:43:11.134Z,0.70
2022-10-01T02:45:39.334Z,1.30
2022-10-01T02:48:11.109Z,0.80
2022-10-01T02:50:43.869Z,1.30
2022-10-01T02:53:22.237Z,0.98
2022-10-01T02:55:50.120Z,0.73
2022-10-01T02:58:18.239Z,1.08
2022-10-01T03:00:47.160Z,0.90
2022-10-01T03:03:13.714Z,1.00
2022-10-01T03:05:40.279Z,0.90
2022-10-01T03:08:07.087Z,0.93
2022-10-01T03:10:34.801Z,0.80
2022-10-01T03:13:01.877Z,0.90
2022-10-01T03:15:28.629Z,0.90
2022-10-01T03:17:55.244Z,1.00
2022-10-01T03:20:22.423Z,0.98
2022-10-01T03:22:49.178Z,1.08
2022-10-01T03:25:16.074Z,0.82
2022-10-01T03:27:43.132Z,1.02
2022-10-01T03:30:10.078Z,0.90
2022-10-01T03:32:36.822Z,0.80
2022-10-01T03:35:03.552Z,0.80
2022-10-01T03:37:30.030Z,0.80
2022-10-01T03:39:56.704Z,0.60
2022-10-01T03:42:23.290Z,0.88
2022-10-01T03:44:49.824Z,0.60
2022-10-01T03:47:16.549Z,0.65
2022-10-01T03:49:43.108Z,0.85
2022-10-01T03:52:09.598Z,1.20
2022-10-01T03:54:36.182Z,0.60
2022-10-01T03:57:03.060Z,0.85
2022-10-01T03:59:29.823Z,1.00
2022-10-01T04:01:56.463Z,0.60
2022-10-01T04:04:23.139Z,0.93
2022-10-01T04:06:49.798Z,0.73
2022-10-01T04:09:16.338Z,0.90
2022-10-01T04:11:43.003Z,0.80
2022-10-01T04:14:09.628Z,0.90
2022-10-01T04:16:36.411Z,0.60
2022-10-01T04:19:03.827Z,1.08
2022-10-01T04:21:33.063Z,0.70
2022-10-01T04:24:00.321Z,0.63
2022-10-01T04:26:27.095Z,0.68
2022-10-01T04:28:53.688Z,0.60
2022-10-01T04:31:26.362Z,1.13
2022-10-01T04:33:54.017Z,0.65
2022-10-01T04:36:20.938Z,0.90
2022-10-01T04:38:47.547Z,0.93
2022-10-01T04:41:14.885Z,0.70
2022-10-01T04:43:41.457Z,1.00
2022-10-01T04:46:08.074Z,0.60
2022-10-01T04:48:34.690Z,0.77
2022-10-01T04:51:01.233Z,0.77
2022-10-01T04:53:27.931Z,0.73
2022-10-01T04:55:54.462Z,0.70
2022-10-01T04:58:20.935Z,0.80
2022-10-01T05:00:48.376Z,0.75
2022-10-01T05:03:15.015Z,0.80
2022-10-01T05:05:41.699Z,0.65
2022-10-01T05:08:08.318Z,0.60
2022-10-01T05:10:35.537Z,1.08
2022-10-01T05:13:02.335Z,0.73
2022-10-01T05:15:29.637Z,0.63
2022-10-01T05:17:56.320Z,0.80
2022-10-01T05:20:24.277Z,0.60
2022-10-01T05:22:50.830Z,0.80
2022-10-01T05:25:18.005Z,0.60
2022-10-01T05:27:44.954Z,0.68
2022-10-01T05:30:12.305Z,0.50
2022-10-01T05:32:39.166Z,0.60
2022-10-01T05:35:07.226Z,0.50
2022-10-01T05:37:34.517Z,0.60
2022-10-01T05:40:01.700Z,0.70
2022-10-01T05:42:28.567Z,0.57
2022-10-01T05:44:56.105Z,0.80
2022-10-01T05:47:23.285Z,0.75
2022-10-01T05:49:49.974Z,0.73
2022-10-01T05:52:16.796Z,0.50
2022-10-01T05:54:43.384Z,1.08
2022-10-01T05:57:10.653Z,0.85
2022-10-01T05:59:37.215Z,0.70
2022-10-01T06:02:04.352Z,0.50
2022-10-01T06:04:31.072Z,0.60
2022-10-01T06:06:57.701Z,0.50
2022-10-01T06:09:24.574Z,0.68
2022-10-01T06:11:51.228Z,0.80
2022-10-01T06:14:17.837Z,0.70
2022-10-01T06:16:44.685Z,0.70
2022-10-01T06:19:11.335Z,0.52
2022-10-01T06:21:38.113Z,1.00
2022-10-01T06:24:05.263Z,0.55
2022-10-01T06:26:32.075Z,0.73
2022-10-01T06:28:58.765Z,0.75
2022-10-01T06:31:25.521Z,0.70
2022-10-01T06:33:52.077Z,0.70
2022-10-01T06:36:18.732Z,0.68
2022-10-01T06:38:47.883Z,0.50
2022-10-01T06:41:14.380Z,0.60
2022-10-01T06:43:40.971Z,0.68
2022-10-01T06:46:07.593Z,0.70
2022-10-01T06:48:36.398Z,0.80
2022-10-01T06:51:03.141Z,0.70
2022-10-01T06:53:29.824Z,0.50
2022-10-01T06:55:59.023Z,0.60
2022-10-01T06:58:28.224Z,0.80
2022-10-01T07:00:59.195Z,0.80
2022-10-01T07:03:25.825Z,0.50
2022-10-01T07:05:52.300Z,0.73
2022-10-01T07:08:19.114Z,0.57
2022-10-01T07:10:45.787Z,1.02
2022-10-01T07:13:16.673Z,0.60
2022-10-01T07:15:43.692Z,0.77
2022-10-01T07:18:10.754Z,0.65
2022-10-01T07:20:39.874Z,0.80
2022-10-01T07:23:07.910Z,0.70
2022-10-01T07:25:34.470Z,0.80
2022-10-01T07:28:02.465Z,0.50
2022-10-01T07:30:29.491Z,0.80
2022-10-01T07:32:55.985Z,0.82
2022-10-01T07:35:22.731Z,1.05
2022-10-01T07:37:50.188Z,0.80
2022-10-01T07:40:17.763Z,0.80
2022-10-01T07:42:51.873Z,0.80
2022-10-01T07:45:18.583Z,0.60
2022-10-01T07:47:51.359Z,0.60
2022-10-01T07:50:17.851Z,0.93
2022-10-01T07:52:44.438Z,0.80
2022-10-01T07:55:14.126Z,1.00
2022-10-01T07:57:41.455Z,0.82
2022-10-01T08:00:08.571Z,0.60
2022-10-01T08:02:38.593Z,0.82
2022-10-01T08:05:31.579Z,0.80
2022-10-01T08:08:02.271Z,0.95
2022-10-01T08:10:29.691Z,1.10
2022-10-01T08:12:59.350Z,1.48
2022-10-01T08:15:25.884Z,1.35
2022-10-01T08:17:52.466Z,1.40
2022-10-01T08:20:21.501Z,1.63
2022-10-01T08:22:48.058Z,2.45
2022-10-01T08:25:14.744Z,1.63
2022-10-01T08:27:41.341Z,2.65
2022-10-01T08:30:08.167Z,5.38
2022-10-01T08:32:37.201Z,6.70
2022-10-01T08:35:04.928Z,6.43
2022-10-01T08:37:31.527Z,7.28
2022-10-01T08:39:58.056Z,7.55
2022-10-01T08:42:45.787Z,7.80
2022-10-01T08:45:32.021Z,7.82
2022-10-01T08:47:58.676Z,5.93
2022-10-01T08:50:48.420Z,7.15
2022-10-01T08:53:18.697Z,5.43
2022-10-01T08:55:47.065Z,6.35
2022-10-01T08:58:17.558Z,6.20
2022-10-01T09:00:45.257Z,5.78
2022-10-01T09:03:13.103Z,5.78
2022-10-01T09:05:40.194Z,6.15
2022-10-01T09:08:16.492Z,5.35
2022-10-01T09:10:45.688Z,5.57
2022-10-01T09:13:23.322Z,4.97
2022-10-01T09:15:56.309Z,6.05
2022-10-01T09:18:43.125Z,5.03
2022-10-01T09:21:16.692Z,5.05
2022-10-01T09:23:47.751Z,5.90
2022-10-01T09:26:14.504Z,4.88
2022-10-01T09:28:41.500Z,6.60
2022-10-01T09:31:17.526Z,4.38
2022-10-01T09:34:04.465Z,4.47
2022-10-01T09:36:39.634Z,5.15
2022-10-01T09:39:12.489Z,5.20
2022-10-01T09:41:39.082Z,4.70
2022-10-01T09:44:06.356Z,4.22
2022-10-01T09:46:33.636Z,3.75
2022-10-01T09:49:22.963Z,4.13
2022-10-01T09:51:51.606Z,4.43
2022-10-01T09:54:23.066Z,4.18
2022-10-01T09:56:53.637Z,4.30
2022-10-01T09:59:39.005Z,4.72
2022-10-01T10:02:15.228Z,4.63
2022-10-01T10:04:42.598Z,5.00
2022-10-01T10:07:15.589Z,4.88
2022-10-01T10:09:43.319Z,4.43
2022-10-01T10:12:24.418Z,3.97
2022-10-01T10:14:51.292Z,5.15
2022-10-01T10:17:17.925Z,4.43
2022-10-01T10:19:51.961Z,4.13
2022-10-01T10:22:23.354Z,4.35
2022-10-01T10:24:49.938Z,4.38
2022-10-01T10:27:36.286Z,3.30
2022-10-01T10:30:05.058Z,3.88
2022-10-01T10:32:31.854Z,4.78
2022-10-01T10:35:03.690Z,4.00
2022-10-01T10:37:31.701Z,4.45
2022-10-01T10:39:58.542Z,4.22
2022-10-01T10:42:25.959Z,3.78
2022-10-01T10:45:03.872Z,4.40
2022-10-01T10:47:31.603Z,3.97
2022-10-01T10:50:00.281Z,4.32
2022-10-01T10:52:30.077Z,4.82
2022-10-01T10:55:00.858Z,3.45
2022-10-01T10:57:34.584Z,4.28
2022-10-01T11:00:02.369Z,4.13
2022-10-01T11:02:33.215Z,3.58
2022-10-01T11:05:04.816Z,3.22
2022-10-01T11:07:31.803Z,3.83
2022-10-01T11:10:17.324Z,4.25
2022-10-01T11:12:59.122Z,3.45
2022-10-01T11:15:41.932Z,4.22
2022-10-01T11:18:27.073Z,3.50
2022-10-01T11:21:09.908Z,4.13
2022-10-01T11:23:37.635Z,3.50
2022-10-01T11:26:19.150Z,3.80
2022-10-01T11:28:51.904Z,3.63
2022-10-01T11:31:18.551Z,4.22
2022-10-01T11:33:58.474Z,3.55
2022-10-01T11:36:43.599Z,3.70
2022-10-01T11:39:16.481Z,3.50
2022-10-01T11:41:46.098Z,3.17
2022-10-01T11:44:28.181Z,3.38
2022-10-01T11:47:26.970Z,3.70
2022-10-01T11:49:56.182Z,3.22
2022-10-01T11:52:23.512Z,3.80
2022-10-01T11:54:56.657Z,2.88
2022-10-01T11:57:41.982Z,3.65
2022-10-01T12:00:10.832Z,3.13
2022-10-01T12:02:47.554Z,3.30
2022-10-01T12:05:21.828Z,3.35
2022-10-01T12:07:57.846Z,3.47
2022-10-01T12:10:30.568Z,2.88
2022-10-01T12:12:57.183Z,3.20
2022-10-01T12:15:30.482Z,3.42
2022-10-01T12:18:00.121Z,2.50
2022-10-01T12:20:26.725Z,2.80
2022-10-01T12:22:56.266Z,2.70
2022-10-01T12:25:26.667Z,2.75
2022-10-01T12:28:06.563Z,3.28
2022-10-01T12:30:38.535Z,2.83
2022-10-01T12:33:05.018Z,2.60
2022-10-01T12:35:35.388Z,2.80
2022-10-01T12:38:10.995Z,2.58
2022-10-01T12:40:44.064Z,2.75
2022-10-01T12:43:16.139Z,3.00
2022-10-01T12:46:02.542Z,2.85
2022-10-01T12:48:29.688Z,3.17
2022-10-01T12:50:56.552Z,2.75
2022-10-01T12:53:37.103Z,3.58
2022-10-01T12:56:13.592Z,2.75
2022-10-01T12:58:49.771Z,2.88
2022-10-01T13:01:19.053Z,2.83
2022-10-01T13:03:48.764Z,2.28
2022-10-01T13:06:34.654Z,2.95
2022-10-01T13:09:01.349Z,2.38
2022-10-01T13:11:27.880Z,2.70
2022-10-01T13:13:55.586Z,2.80
2022-10-01T13:16:37.054Z,2.38
2022-10-01T13:19:04.101Z,2.60
2022-10-01T13:21:32.359Z,3.10
2022-10-01T13:24:04.290Z,2.50
2022-10-01T13:26:57.792Z,2.55
2022-10-01T13:29:30.988Z,2.80
2022-10-01T13:32:01.720Z,2.40
2022-10-01T13:34:38.982Z,2.80
2022-10-01T13:37:14.601Z,2.53
2022-10-01T13:39:43.416Z,2.50
2022-10-01T13:42:23.140Z,2.35
2022-10-01T13:44:53.617Z,2.30
2022-10-01T13:47:20.864Z,2.60
2022-10-01T13:49:58.809Z,2.80
2022-10-01T13:52:25.334Z,2.72
2022-10-01T13:54:53.879Z,2.40
2022-10-01T13:57:36.765Z,2.45
2022-10-01T14:00:15.540Z,2.17
2022-10-01T14:02:57.513Z,2.08
2022-10-01T14:05:27.518Z,1.83
2022-10-01T14:07:57.964Z,2.15
2022-10-01T14:10:31.633Z,2.40
2022-10-01T14:13:21.492Z,2.10
2022-10-01T14:16:02.085Z,2.00
2022-10-01T14:18:39.229Z,2.17
2022-10-01T14:21:05.782Z,1.60
2022-10-01T14:23:36.614Z,1.95
2022-10-01T14:26:06.123Z,2.50
2022-10-01T14:28:32.595Z,2.22
2022-10-01T14:31:06.524Z,2.10
2022-10-01T14:33:54.083Z,1.80
2022-10-01T14:36:29.657Z,2.42
2022-10-01T14:39:03.391Z,1.90
2022-10-01T14:41:33.725Z,1.85
2022-10-01T14:44:00.922Z,1.85
2022-10-01T14:46:27.483Z,1.83
2022-10-01T14:48:58.671Z,2.58
2022-10-01T14:51:29.495Z,2.00
2022-10-01T14:53:57.595Z,2.10
2022-10-01T14:56:24.484Z,2.33
2022-10-01T14:58:54.654Z,1.95
2022-10-01T15:01:22.391Z,2.30
2022-10-01T15:03:49.706Z,1.83
2022-10-01T15:06:18.325Z,2.20
2022-10-01T15:08:47.755Z,1.80
2022-10-01T15:11:19.656Z,1.92
2022-10-01T15:13:48.293Z,1.65
2022-10-01T15:16:16.601Z,1.65
2022-10-01T15:18:53.351Z,1.70
2022-10-01T15:21:22.943Z,2.08
2022-10-01T15:23:49.625Z,1.60
2022-10-01T15:26:20.029Z,1.90
2022-10-01T15:28:46.633Z,2.55
2022-10-01T15:31:13.476Z,2.40
2022-10-01T15:33:41.080Z,1.83
2022-10-01T15:36:12.437Z,1.70
2022-10-01T15:38:41.240Z,2.00
2022-10-01T15:41:30.974Z,2.30
2022-10-01T15:43:59.890Z,2.10
2022-10-01T15:46:35.983Z,2.58
2022-10-01T15:49:12.012Z,2.33
2022-10-01T15:51:44.470Z,1.73
2022-10-01T15:54:12.184Z,1.90
2022-10-01T15:56:42.205Z,1.67
2022-10-01T16:04:32.672Z,1.85
2022-10-01T16:06:59.274Z,2.53
2022-10-01T16:09:28.504Z,1.98
2022-10-01T16:11:59.552Z,2.22
2022-10-01T16:14:42.756Z,2.10
2022-10-01T16:17:18.824Z,1.73
2022-10-01T16:19:53.071Z,1.80
2022-10-01T16:22:24.420Z,1.90
2022-10-01T16:24:58.205Z,1.70
2022-10-01T16:27:34.471Z,1.70
2022-10-01T16:30:05.509Z,2.45
2022-10-01T16:32:32.919Z,2.30
2022-10-01T16:35:17.786Z,1.77
2022-10-01T16:37:45.503Z,1.73
2022-10-01T16:40:15.974Z,1.90
2022-10-01T16:42:44.294Z,1.83
2022-10-01T16:45:18.519Z,2.42
2022-10-01T16:47:45.510Z,1.50
2022-10-01T16:50:15.943Z,1.95
2022-10-01T16:52:42.806Z,2.05
2022-10-01T16:55:22.767Z,1.85
2022-10-01T16:57:49.923Z,1.75
2022-10-01T17:00:17.771Z,1.63
2022-10-01T17:02:45.020Z,1.83
2022-10-01T17:05:25.477Z,1.95
2022-10-01T17:07:55.058Z,1.55
2022-10-01T17:10:22.623Z,1.83
2022-10-01T17:12:49.134Z,1.75
2022-10-01T17:15:17.510Z,1.63
2022-10-01T17:17:45.202Z,2.42
2022-10-01T17:20:11.923Z,1.88
2022-10-01T17:22:39.189Z,1.50
2022-10-01T17:25:07.156Z,1.63
2022-10-01T17:27:33.744Z,1.70
2022-10-01T17:30:00.284Z,2.03
2022-10-01T17:32:26.863Z,2.08
2022-10-01T17:34:54.430Z,1.70
2022-10-01T17:37:23.852Z,2.05
2022-10-01T17:39:50.466Z,1.52
2022-10-01T17:42:18.223Z,1.88
2022-10-01T17:44:44.943Z,1.88
2022-10-01T17:47:11.452Z,1.80
2022-10-01T17:49:38.106Z,1.92
2022-10-01T17:52:05.768Z,1.85
2022-10-01T17:54:33.275Z,1.60
2022-10-01T17:57:00.029Z,1.40
2022-10-01T17:59:26.663Z,1.48
2022-10-01T18:01:54.497Z,1.80
2022-10-01T18:04:21.139Z,1.77
2022-10-01T18:06:49.109Z,1.70
2022-10-01T18:09:15.867Z,1.70
2022-10-01T18:11:42.499Z,1.50
2022-10-01T18:14:09.169Z,1.90
2022-10-01T18:16:36.272Z,1.50
2022-10-01T18:21:51.164Z,1.52
2022-10-01T18:24:17.887Z,1.52
2022-10-01T18:26:45.666Z,1.60
2022-10-01T18:29:19.608Z,1.42
2022-10-01T18:31:46.439Z,1.45
2022-10-01T18:34:20.621Z,1.88
2022-10-01T18:36:53.125Z,1.27
2022-10-01T18:39:22.672Z,1.40
2022-10-01T18:41:49.488Z,1.67
2022-10-01T18:44:20.245Z,1.80
2022-10-01T18:46:52.713Z,1.50
2022-10-01T18:49:19.357Z,1.52
2022-10-01T18:52:04.567Z,1.20
2022-10-01T18:54:43.348Z,1.92
2022-10-01T18:57:28.569Z,1.85
2022-10-01T18:59:57.847Z,1.77
2022-10-01T19:02:26.972Z,1.70
2022-10-01T19:05:12.006Z,1.83
2022-10-01T19:07:55.522Z,1.55
2022-10-01T19:10:24.886Z,1.63
2022-10-01T19:12:57.347Z,1.50
2022-10-01T19:15:40.701Z,2.20
2022-10-01T19:18:28.499Z,1.40
2022-10-01T19:21:15.889Z,1.80
2022-10-01T19:23:57.823Z,1.52
2022-10-01T19:26:33.712Z,1.10
2022-10-01T19:29:09.785Z,1.45
2022-10-01T19:31:52.781Z,1.40
2022-10-01T19:34:25.619Z,1.60
2022-10-01T19:36:55.126Z,1.40
2022-10-01T19:39:23.531Z,1.77
2022-10-01T19:42:13.605Z,1.35
2022-10-01T19:44:44.709Z,1.42
2022-10-01T19:47:20.083Z,1.58
2022-10-01T19:49:50.428Z,1.65
2022-10-01T19:52:18.442Z,1.70
2022-10-01T19:54:48.621Z,1.45
2022-10-01T19:57:18.171Z,1.40
2022-10-01T19:59:44.895Z,1.60
2022-10-01T20:02:28.766Z,1.48
2022-10-01T20:04:58.073Z,1.50
2022-10-01T20:07:28.564Z,2.33
2022-10-01T20:10:12.783Z,2.70
2022-10-01T20:12:39.392Z,2.30
2022-10-01T20:15:09.003Z,2.33
2022-10-01T20:17:41.437Z,1.70
2022-10-01T20:20:23.473Z,1.50
2022-10-01T20:23:09.361Z,2.00
2022-10-01T20:25:54.830Z,1.80
2022-10-01T20:28:31.280Z,1.70
2022-10-01T20:31:05.213Z,1.92
2022-10-01T20:36:01.432Z,2.15
2022-10-01T20:38:30.662Z,2.13
2022-10-01T20:40:58.313Z,1.90
2022-10-01T20:43:33.715Z,1.50
2022-10-01T20:46:06.196Z,1.92
2022-10-01T20:48:36.963Z,1.95
2022-10-01T20:51:06.829Z,1.90
2022-10-01T20:53:40.147Z,1.75
2022-10-01T20:56:10.054Z,1.50
2022-10-01T20:58:55.125Z,1.85
2022-10-01T21:01:23.980Z,1.80
2022-10-01T21:04:09.749Z,2.22
2022-10-01T21:06:39.191Z,2.20
2022-10-01T21:09:08.997Z,2.00
2022-10-01T21:11:41.697Z,2.22
2022-10-01T21:14:20.205Z,1.98
2022-10-01T21:16:46.931Z,2.13
2022-10-01T21:19:23.442Z,1.63
2022-10-01T21:21:55.261Z,1.73
2022-10-01T21:24:33.794Z,2.22
2022-10-01T21:27:06.240Z,3.05
2022-10-01T21:29:34.025Z,2.22
2022-10-01T21:32:12.626Z,2.40
2022-10-01T21:34:52.545Z,2.08
2022-10-01T21:37:26.995Z,1.40
2022-10-01T21:40:06.986Z,1.98
2022-10-01T21:42:42.805Z,2.40
2022-10-01T21:45:36.539Z,2.20
2022-10-01T21:48:03.565Z,2.45
2022-10-01T21:50:35.400Z,2.08
2022-10-01T21:53:07.869Z,1.88
2022-10-01T21:55:53.012Z,2.38
2022-10-01T21:58:58.325Z,2.08
2022-10-01T22:01:35.388Z,1.98
2022-10-01T22:04:07.352Z,2.05
2022-10-01T22:06:45.364Z,2.25
2022-10-01T22:09:14.735Z,2.40
2022-10-01T22:11:46.304Z,2.00
2022-10-01T22:14:14.329Z,2.28
2022-10-01T22:16:43.062Z,2.00
2022-10-01T22:19:15.375Z,2.47
2022-10-01T22:21:47.012Z,2.00
2022-10-01T22:24:21.863Z,2.03
2022-10-01T22:26:54.586Z,2.55
2022-10-01T22:29:23.631Z,1.90
2022-10-01T22:31:53.754Z,2.10
2022-10-01T22:34:22.630Z,2.35
2022-10-01T22:36:51.082Z,2.42
2022-10-01T22:39:25.053Z,2.28
2022-10-01T22:41:56.004Z,2.22
2022-10-01T22:44:23.310Z,2.00
2022-10-01T22:46:53.760Z,2.45
2022-10-01T22:49:44.953Z,2.53
2022-10-01T22:52:11.493Z,2.17
2022-10-01T22:54:37.963Z,2.47
2022-10-01T22:57:04.913Z,2.50
2022-10-01T22:59:46.476Z,2.58
2022-10-01T23:02:15.902Z,2.55
2022-10-01T23:04:45.534Z,2.10
2022-10-01T23:07:15.922Z,3.85
2022-10-01T23:09:50.751Z,2.65
2022-10-01T23:12:33.419Z,2.58
2022-10-01T23:15:22.505Z,2.40
2022-10-01T23:17:56.645Z,2.42
2022-10-01T23:22:57.968Z,2.42
2022-10-01T23:25:25.828Z,2.33
2022-10-01T23:27:52.631Z,2.38
2022-10-01T23:30:20.125Z,2.90
2022-10-01T23:32:56.109Z,3.00
2022-10-01T23:35:31.580Z,2.30
2022-10-01T23:38:16.720Z,2.72
2022-10-01T23:40:45.031Z,3.08
2022-10-01T23:43:30.101Z,2.50
2022-10-01T23:46:05.994Z,2.65
2022-10-01T23:48:44.577Z,2.72
2022-10-01T23:51:14.168Z,3.22
2022-10-01T23:53:44.121Z,2.70
2022-10-01T23:56:45.660Z,3.30
2022-10-01T23:59:26.547Z,3.58
